createdAt,value
2022-09-06T00:01:17.935Z,4.25
2022-09-06T00:04:09.670Z,4.18
2022-09-06T00:07:02.843Z,4.07
2022-09-06T00:09:52.216Z,3.75
2022-09-06T00:12:41.495Z,3.63
2022-09-06T00:15:31.094Z,3.50
2022-09-06T00:18:20.986Z,4.03
2022-09-06T00:21:22.614Z,3.55
2022-09-06T00:24:12.109Z,3.58
2022-09-06T00:27:01.955Z,3.97
2022-09-06T00:29:51.357Z,3.88
2022-09-06T00:32:42.195Z,4.15
2022-09-06T00:35:31.715Z,3.72
2022-09-06T00:38:21.380Z,4.00
2022-09-06T00:41:13.376Z,3.83
2022-09-06T00:46:56.534Z,3.83
2022-09-06T00:49:50.672Z,3.90
2022-09-06T00:52:42.137Z,3.60
2022-09-06T00:55:31.778Z,3.53
2022-09-06T00:58:21.307Z,3.83
2022-09-06T01:01:10.849Z,3.60
2022-09-06T01:04:01.414Z,3.90
2022-09-06T01:07:25.481Z,3.80
2022-09-06T01:10:33.096Z,3.67
2022-09-06T01:13:25.399Z,3.95
2022-09-06T01:16:30.312Z,3.88
2022-09-06T01:19:47.940Z,3.45
2022-09-06T01:23:18.115Z,3.58
2022-09-06T01:26:21.035Z,3.50
2022-09-06T01:29:24.501Z,3.85
2022-09-06T01:32:34.312Z,3.85
2022-09-06T01:35:50.755Z,3.58
2022-09-06T01:38:41.475Z,3.83
2022-09-06T01:41:33.405Z,3.92
2022-09-06T01:47:26.014Z,3.33
2022-09-06T01:50:27.494Z,3.65
2022-09-06T01:54:21.195Z,3.85
2022-09-06T01:57:47.794Z,3.53
2022-09-06T02:00:54.281Z,3.83
2022-09-06T02:04:05.395Z,3.80
2022-09-06T02:07:06.505Z,4.20
2022-09-06T02:10:17.955Z,3.65
2022-09-06T02:13:08.571Z,3.70
2022-09-06T02:16:03.248Z,3.80
2022-09-06T02:19:11.809Z,3.70
2022-09-06T02:22:05.076Z,3.85
2022-09-06T02:24:58.218Z,4.05
2022-09-06T02:27:47.735Z,4.10
2022-09-06T02:30:43.273Z,4.20
2022-09-06T02:33:34.774Z,4.03
2022-09-06T02:36:24.883Z,4.20
2022-09-06T02:39:14.885Z,4.13
2022-09-06T02:42:10.614Z,3.80
2022-09-06T02:45:00.047Z,3.63
2022-09-06T02:47:49.463Z,4.03
2022-09-06T02:50:39.015Z,4.00
2022-09-06T02:53:28.730Z,3.92
2022-09-06T02:56:17.996Z,4.32
2022-09-06T02:59:07.774Z,3.88
2022-09-06T03:01:57.375Z,3.50
2022-09-06T03:04:46.937Z,3.85
2022-09-06T03:07:37.706Z,3.70
2022-09-06T03:10:28.101Z,4.05
2022-09-06T03:13:17.475Z,4.13
2022-09-06T03:16:07.247Z,3.95
2022-09-06T03:18:57.654Z,3.70
2022-09-06T03:21:46.800Z,4.05
2022-09-06T03:24:36.455Z,3.70
2022-09-06T03:27:26.080Z,3.80
2022-09-06T03:30:15.372Z,4.07
2022-09-06T03:33:04.915Z,3.47
2022-09-06T03:36:00.030Z,4.20
2022-09-06T03:38:49.802Z,4.00
2022-09-06T03:41:39.600Z,4.15
2022-09-06T03:44:29.394Z,3.95
2022-09-06T03:47:19.721Z,4.15
2022-09-06T03:50:10.035Z,3.80
2022-09-06T03:52:59.178Z,3.72
2022-09-06T03:55:54.295Z,3.75
2022-09-06T03:58:44.195Z,3.75
2022-09-06T04:01:34.892Z,4.13
2022-09-06T04:04:24.416Z,3.92
2022-09-06T04:07:14.259Z,4.18
2022-09-06T04:10:03.577Z,4.25
2022-09-06T04:12:53.054Z,3.92
2022-09-06T04:15:46.518Z,3.90
2022-09-06T04:18:36.135Z,3.60
2022-09-06T04:21:25.815Z,3.42
2022-09-06T04:24:15.156Z,3.85
2022-09-06T04:27:07.777Z,3.55
2022-09-06T04:29:58.015Z,4.03
2022-09-06T04:32:47.455Z,4.00
2022-09-06T04:35:36.995Z,4.10
2022-09-06T04:38:31.738Z,3.88
2022-09-06T04:41:22.175Z,4.15
2022-09-06T04:44:11.715Z,4.10
2022-09-06T04:47:19.322Z,4.25
2022-09-06T04:50:09.257Z,3.88
2022-09-06T04:52:58.675Z,3.67
2022-09-06T04:55:48.058Z,3.97
2022-09-06T04:58:37.715Z,3.75
2022-09-06T05:01:27.466Z,3.45
2022-09-06T05:04:17.175Z,4.38
2022-09-06T05:07:09.856Z,3.88
2022-09-06T05:09:59.708Z,4.00
2022-09-06T05:12:53.222Z,3.95
2022-09-06T05:15:42.982Z,4.43
2022-09-06T05:18:32.581Z,4.22
2022-09-06T05:21:22.585Z,3.63
2022-09-06T05:24:12.415Z,4.22
2022-09-06T05:27:04.983Z,3.75
2022-09-06T05:29:54.495Z,4.18
2022-09-06T05:32:43.738Z,4.00
2022-09-06T05:35:33.001Z,3.95
2022-09-06T05:38:22.736Z,4.30
2022-09-06T05:41:12.517Z,4.13
2022-09-06T05:44:01.763Z,4.15
2022-09-06T05:46:51.415Z,3.88
2022-09-06T05:49:41.222Z,4.38
2022-09-06T05:52:30.895Z,4.00
2022-09-06T05:55:23.455Z,3.95
2022-09-06T05:58:12.692Z,4.35
2022-09-06T06:01:24.305Z,4.32
2022-09-06T06:04:14.035Z,4.00
2022-09-06T06:07:04.755Z,4.07
2022-09-06T06:09:54.291Z,4.60
2022-09-06T06:12:43.706Z,4.30
2022-09-06T06:15:33.479Z,3.72
2022-09-06T06:18:22.935Z,4.70
2022-09-06T06:21:16.513Z,4.50
2022-09-06T06:24:07.147Z,4.20
2022-09-06T06:26:57.135Z,4.00
2022-09-06T06:29:46.619Z,4.50
2022-09-06T06:32:37.075Z,4.18
2022-09-06T06:35:27.021Z,4.30
2022-09-06T06:38:16.736Z,4.63
2022-09-06T06:41:08.035Z,4.15
2022-09-06T06:44:02.503Z,4.83
2022-09-06T06:46:53.176Z,4.13
2022-09-06T06:49:42.416Z,4.43
2022-09-06T06:52:31.802Z,4.50
2022-09-06T06:55:21.164Z,4.10
2022-09-06T06:58:11.457Z,4.63
2022-09-06T07:01:01.385Z,4.65
2022-09-06T07:03:51.716Z,4.97
2022-09-06T07:13:15.220Z,4.70
2022-09-06T07:16:22.453Z,4.90
2022-09-06T07:22:22.896Z,5.13
2022-09-06T07:25:17.624Z,4.65
2022-09-06T07:28:09.906Z,4.80
2022-09-06T07:30:59.720Z,4.82
2022-09-06T07:33:53.830Z,5.00
2022-09-06T07:36:45.215Z,5.38
2022-09-06T07:39:34.683Z,5.20
2022-09-06T07:42:24.156Z,4.65
2022-09-06T07:45:13.690Z,5.18
2022-09-06T07:48:03.418Z,5.28
2022-09-06T07:50:54.601Z,5.07
2022-09-06T07:53:57.986Z,4.82
2022-09-06T07:56:51.976Z,5.32
2022-09-06T07:59:42.983Z,5.07
2022-09-06T08:02:33.151Z,4.80
2022-09-06T08:11:42.230Z,5.38
2022-09-06T08:14:31.776Z,5.35
2022-09-06T08:17:21.433Z,5.78
2022-09-06T08:20:11.189Z,5.25
2022-09-06T08:23:00.556Z,4.88
2022-09-06T08:26:00.175Z,5.07
2022-09-06T08:28:54.376Z,5.10
2022-09-06T08:31:45.556Z,4.55
2022-09-06T08:34:35.171Z,4.73
2022-09-06T08:37:25.276Z,4.72
2022-09-06T08:40:21.077Z,4.68
2022-09-06T08:43:20.589Z,5.05
2022-09-06T08:46:12.280Z,4.65
2022-09-06T08:49:01.758Z,4.43
2022-09-06T08:51:51.015Z,4.88
2022-09-06T08:54:55.424Z,4.88
2022-09-06T08:58:12.461Z,4.68
2022-09-06T09:01:18.354Z,5.05
2022-09-06T09:04:16.856Z,4.72
2022-09-06T09:07:19.749Z,5.13
2022-09-06T09:10:20.342Z,4.97
2022-09-06T09:13:17.596Z,4.82
2022-09-06T09:16:08.094Z,5.00
2022-09-06T09:19:04.715Z,4.68
2022-09-06T09:21:54.142Z,5.03
2022-09-06T09:24:43.550Z,4.57
2022-09-06T09:27:34.303Z,5.03
2022-09-06T09:33:37.203Z,5.15
2022-09-06T09:36:27.709Z,4.88
2022-09-06T09:39:19.882Z,4.75
2022-09-06T09:42:10.795Z,4.68
2022-09-06T09:45:01.710Z,4.60
2022-09-06T09:47:51.101Z,4.47
2022-09-06T09:50:41.037Z,4.68
2022-09-06T09:53:30.625Z,4.28
2022-09-06T09:56:32.555Z,4.93
2022-09-06T09:59:41.338Z,4.50
2022-09-06T10:02:43.135Z,4.43
2022-09-06T10:05:32.535Z,4.38
2022-09-06T10:08:26.849Z,4.97
2022-09-06T10:11:16.496Z,4.55
2022-09-06T10:14:31.101Z,5.10
2022-09-06T10:17:46.316Z,4.57
2022-09-06T10:20:41.855Z,4.60
2022-09-06T10:24:26.310Z,4.80
2022-09-06T10:27:25.421Z,4.32
2022-09-06T10:30:15.577Z,4.65
2022-09-06T10:33:37.374Z,5.07
2022-09-06T10:36:56.935Z,4.83
2022-09-06T10:39:58.154Z,4.50
2022-09-06T10:42:51.259Z,4.40
2022-09-06T10:46:01.771Z,4.38
2022-09-06T10:48:51.931Z,4.80
2022-09-06T10:52:02.734Z,4.38
2022-09-06T10:54:53.655Z,4.25
2022-09-06T11:01:01.678Z,4.30
2022-09-06T11:06:53.995Z,4.13
2022-09-06T11:09:48.414Z,3.25
2022-09-06T11:12:52.975Z,2.92
2022-09-06T11:16:07.649Z,3.40
2022-09-06T11:19:11.656Z,3.40
2022-09-06T11:22:23.354Z,3.67
2022-09-06T11:25:37.021Z,3.70
2022-09-06T11:28:54.094Z,3.60
2022-09-06T11:35:12.334Z,3.40
2022-09-06T11:38:13.274Z,3.42
2022-09-06T11:41:08.133Z,3.60
2022-09-06T11:44:00.577Z,3.72
2022-09-06T11:46:50.620Z,3.40
2022-09-06T11:49:42.318Z,3.50
2022-09-06T11:53:13.920Z,3.70
2022-09-06T11:56:03.375Z,3.45
2022-09-06T11:58:58.874Z,3.47
2022-09-06T12:01:57.015Z,3.33
2022-09-06T12:05:08.142Z,3.40
2022-09-06T12:08:12.574Z,3.35
2022-09-06T12:11:04.575Z,3.58
2022-09-06T12:14:18.094Z,3.78
2022-09-06T12:17:08.234Z,3.63
2022-09-06T12:20:09.418Z,3.63
2022-09-06T12:22:59.014Z,3.42
2022-09-06T12:25:55.899Z,4.10
2022-09-06T12:28:52.805Z,3.85
2022-09-06T12:31:45.109Z,4.10
2022-09-06T12:34:37.098Z,4.45
2022-09-06T12:37:41.175Z,3.78
2022-09-06T12:40:33.974Z,3.55
2022-09-06T12:43:23.128Z,3.50
2022-09-06T12:46:12.711Z,4.22
2022-09-06T12:49:16.806Z,3.13
2022-09-06T12:52:14.814Z,3.90
2022-09-06T12:55:17.574Z,4.07
2022-09-06T12:58:13.176Z,3.72
2022-09-06T13:01:10.902Z,3.42
2022-09-06T13:04:10.715Z,3.35
2022-09-06T13:07:02.163Z,3.90
2022-09-06T13:09:56.554Z,3.70
2022-09-06T13:12:48.216Z,3.90
2022-09-06T13:15:39.059Z,3.88
2022-09-06T13:18:40.658Z,4.20
2022-09-06T13:21:34.293Z,3.72
2022-09-06T13:24:36.415Z,3.60
2022-09-06T13:27:40.459Z,3.55
2022-09-06T13:30:38.935Z,3.45
2022-09-06T13:33:28.541Z,4.20
2022-09-06T13:36:29.062Z,3.92
2022-09-06T13:39:36.443Z,4.32
2022-09-06T13:42:34.063Z,3.83
2022-09-06T13:45:28.942Z,4.30
2022-09-06T13:48:29.022Z,4.13
2022-09-06T13:51:19.441Z,4.35
2022-09-06T13:54:14.052Z,4.25
2022-09-06T13:57:04.172Z,3.90
2022-09-06T13:59:53.675Z,3.63
2022-09-06T14:02:43.857Z,3.70
2022-09-06T14:05:33.193Z,3.92
2022-09-06T14:08:22.834Z,4.43
2022-09-06T14:11:14.425Z,3.97
2022-09-06T14:14:03.997Z,4.35
2022-09-06T14:16:54.935Z,4.43
2022-09-06T14:19:44.390Z,4.30
2022-09-06T14:22:33.784Z,4.47
2022-09-06T14:25:23.838Z,3.97
2022-09-06T14:28:13.347Z,3.92
2022-09-06T14:31:20.741Z,3.83
2022-09-06T14:34:11.337Z,4.60
2022-09-06T14:37:00.815Z,4.20
2022-09-06T14:39:50.420Z,3.92
2022-09-06T14:42:40.215Z,4.38
2022-09-06T14:45:30.175Z,4.10
2022-09-06T14:48:21.495Z,3.70
2022-09-06T14:51:21.979Z,4.20
2022-09-06T14:54:14.097Z,3.97
2022-09-06T14:57:04.505Z,4.45
2022-09-06T14:59:54.135Z,4.10
2022-09-06T15:02:45.038Z,3.95
2022-09-06T15:05:35.037Z,3.92
2022-09-06T15:08:25.255Z,3.88
2022-09-06T15:11:14.935Z,4.40
2022-09-06T15:14:08.425Z,4.20
2022-09-06T15:17:02.135Z,4.40
2022-09-06T15:19:51.793Z,3.90
2022-09-06T15:22:41.420Z,4.00
2022-09-06T15:25:31.315Z,3.97
2022-09-06T15:28:21.266Z,3.75
2022-09-06T15:31:10.804Z,3.97
2022-09-06T15:34:00.632Z,3.42
2022-09-06T15:36:52.296Z,4.07
2022-09-06T15:39:41.620Z,3.90
2022-09-06T15:42:31.856Z,3.80
2022-09-06T15:45:21.575Z,4.18
2022-09-06T15:48:12.135Z,3.53
2022-09-06T15:51:04.698Z,3.95
2022-09-06T15:53:54.456Z,3.72
2022-09-06T15:56:44.696Z,3.70
2022-09-06T15:59:34.136Z,3.95
2022-09-06T16:02:23.890Z,3.70
2022-09-06T16:05:13.356Z,3.88
2022-09-06T16:08:02.993Z,3.60
2022-09-06T16:10:52.601Z,3.80
2022-09-06T16:13:43.069Z,3.50
2022-09-06T16:16:32.982Z,3.88
2022-09-06T16:19:22.784Z,3.58
2022-09-06T16:22:14.759Z,3.50
2022-09-06T16:25:06.331Z,3.67
2022-09-06T16:27:55.694Z,3.83
2022-09-06T16:30:47.289Z,3.45
2022-09-06T16:33:39.061Z,3.47
2022-09-06T16:36:30.541Z,4.00
2022-09-06T16:39:20.451Z,4.03
2022-09-06T16:42:09.689Z,3.40
2022-09-06T16:44:59.564Z,4.10
2022-09-06T16:47:49.827Z,3.60
2022-09-06T16:50:39.188Z,3.70
2022-09-06T16:53:28.405Z,3.70
2022-09-06T16:56:20.213Z,3.70
2022-09-06T16:59:11.610Z,3.67
2022-09-06T17:02:01.654Z,3.85
2022-09-06T17:04:51.057Z,3.58
2022-09-06T17:07:41.592Z,4.10
2022-09-06T17:10:31.290Z,3.50
2022-09-06T17:13:20.656Z,3.80
2022-09-06T17:16:28.556Z,3.95
2022-09-06T17:19:17.712Z,3.50
2022-09-06T17:22:07.451Z,4.03
2022-09-06T17:24:56.782Z,3.60
2022-09-06T17:27:46.134Z,3.78
2022-09-06T17:30:40.609Z,4.03
2022-09-06T17:33:31.237Z,3.75
2022-09-06T17:36:24.310Z,3.55
2022-09-06T17:39:20.329Z,4.15
2022-09-06T17:42:10.860Z,3.80
2022-09-06T17:45:01.134Z,3.72
2022-09-06T17:47:51.686Z,3.55
2022-09-06T17:50:42.354Z,3.53
2022-09-06T17:53:33.276Z,3.80
2022-09-06T17:56:22.968Z,4.13
2022-09-06T17:59:14.950Z,3.90
2022-09-06T18:02:04.581Z,3.72
2022-09-06T18:04:53.852Z,3.58
2022-09-06T18:07:43.590Z,3.38
2022-09-06T18:10:36.109Z,3.65
2022-09-06T18:13:25.545Z,3.90
2022-09-06T18:16:16.914Z,3.92
2022-09-06T18:19:07.854Z,3.75
2022-09-06T18:21:58.087Z,3.90
2022-09-06T18:24:47.621Z,3.80
2022-09-06T18:27:38.224Z,3.60
2022-09-06T18:30:27.824Z,3.70
2022-09-06T18:33:17.044Z,3.97
2022-09-06T18:36:07.956Z,3.83
2022-09-06T18:38:57.758Z,4.03
2022-09-06T18:42:02.356Z,3.80
2022-09-06T18:44:52.504Z,4.00
2022-09-06T18:47:44.019Z,4.00
2022-09-06T18:50:33.377Z,3.95
2022-09-06T18:53:22.953Z,4.00
2022-09-06T18:56:14.204Z,4.15
2022-09-06T18:59:03.702Z,3.92
2022-09-06T19:01:53.275Z,3.67
2022-09-06T19:04:42.822Z,3.58
2022-09-06T19:07:32.088Z,3.90
2022-09-06T19:10:21.490Z,4.00
2022-09-06T19:13:10.903Z,3.60
2022-09-06T19:16:00.631Z,4.03
2022-09-06T19:18:50.005Z,4.90
2022-09-06T19:21:42.320Z,3.88
2022-09-06T19:24:32.117Z,3.65
2022-09-06T19:27:21.766Z,3.90
2022-09-06T19:30:11.637Z,3.85
2022-09-06T19:33:03.050Z,3.88
2022-09-06T19:36:10.298Z,4.00
2022-09-06T19:39:05.101Z,4.00
2022-09-06T19:41:54.898Z,4.07
2022-09-06T19:44:45.199Z,3.90
2022-09-06T19:47:34.757Z,4.05
2022-09-06T19:50:24.320Z,4.00
2022-09-06T19:53:13.613Z,3.83
2022-09-06T19:56:13.834Z,4.18
2022-09-06T19:59:09.001Z,4.00
2022-09-06T20:01:59.017Z,4.00
2022-09-06T20:04:48.661Z,3.95
2022-09-06T20:07:38.518Z,3.80
2022-09-06T20:10:28.899Z,3.92
2022-09-06T20:13:19.138Z,4.10
2022-09-06T20:16:10.772Z,3.80
2022-09-06T20:19:00.564Z,3.90
2022-09-06T20:21:50.114Z,3.90
2022-09-06T20:24:39.568Z,4.10
2022-09-06T20:27:28.851Z,4.05
2022-09-06T20:30:18.330Z,3.92
2022-09-06T20:33:07.687Z,4.07
2022-09-06T20:35:58.860Z,3.95
2022-09-06T20:38:49.475Z,3.87
2022-09-06T20:41:39.197Z,3.63
2022-09-06T20:44:28.478Z,3.80
2022-09-06T20:47:17.800Z,4.50
2022-09-06T20:50:08.777Z,3.70
2022-09-06T20:52:58.337Z,3.72
2022-09-06T20:55:58.003Z,4.25
2022-09-06T20:58:52.421Z,4.45
2022-09-06T21:01:44.353Z,3.95
2022-09-06T21:07:23.532Z,3.72
2022-09-06T21:10:12.939Z,4.00
2022-09-06T21:13:02.321Z,4.05
2022-09-06T21:15:51.570Z,3.80
2022-09-06T21:18:42.017Z,4.20
2022-09-06T21:21:34.321Z,3.97
2022-09-06T21:27:13.162Z,4.40
2022-09-06T21:30:02.578Z,4.03
2022-09-06T21:32:55.055Z,4.10
2022-09-06T21:35:44.647Z,4.30
2022-09-06T21:38:35.521Z,4.57
2022-09-06T21:41:25.766Z,4.10
2022-09-06T21:44:15.681Z,4.10
2022-09-06T21:47:05.980Z,4.20
2022-09-06T21:49:55.764Z,3.88
2022-09-06T21:52:45.184Z,3.72
2022-09-06T21:55:34.926Z,4.07
2022-09-06T21:58:24.643Z,4.22
2022-09-06T22:01:15.042Z,3.67
2022-09-06T22:04:05.641Z,4.05
2022-09-06T22:06:55.124Z,4.30
2022-09-06T22:09:45.511Z,4.15
2022-09-06T22:12:34.963Z,4.15
2022-09-06T22:15:24.963Z,3.80
2022-09-06T22:18:15.133Z,4.05
2022-09-06T22:21:07.437Z,4.07
2022-09-06T22:23:59.442Z,4.05
2022-09-06T22:26:48.828Z,4.05
2022-09-06T22:29:38.184Z,4.18
2022-09-06T22:32:27.842Z,4.22
2022-09-06T22:35:17.822Z,3.78
2022-09-06T22:38:08.490Z,4.22
2022-09-06T22:41:01.084Z,4.35
2022-09-06T22:43:50.463Z,4.10
2022-09-06T22:46:39.916Z,4.30
2022-09-06T22:49:29.383Z,3.97
2022-09-06T22:52:18.962Z,3.95
2022-09-06T22:55:08.502Z,4.00
2022-09-06T22:57:57.807Z,4.10
2022-09-06T23:00:48.739Z,4.05
2022-09-06T23:03:38.801Z,3.97
2022-09-06T23:06:28.277Z,4.22
2022-09-06T23:09:17.816Z,4.10
2022-09-06T23:12:08.618Z,3.78
2022-09-06T23:14:58.323Z,3.65
2022-09-06T23:17:47.692Z,4.30
2022-09-06T23:20:38.425Z,3.90
2022-09-06T23:23:28.443Z,4.40
2022-09-06T23:26:25.325Z,4.05
2022-09-06T23:29:15.199Z,3.90
2022-09-06T23:32:05.376Z,3.88
2022-09-06T23:34:56.734Z,3.90
2022-09-06T23:37:46.272Z,3.78
2022-09-06T23:40:35.509Z,4.13
2022-09-06T23:43:25.322Z,4.10
2022-09-06T23:46:18.757Z,3.72
2022-09-06T23:49:10.688Z,3.97
2022-09-06T23:52:00.109Z,3.92
2022-09-06T23:54:49.726Z,3.70
2022-09-06T23:57:39.362Z,4.18
